Time;durP1;ratioP1;P1;durP2;ratioP2;P2;SDS_P1;SDS_P2;PMS_P1;PMS_P2;Temp;Humidity;BMP_temperature;BMP_pressure;BME280_temperature;BME280_humidity;BME280_pressure;Samples;Min_cycle;Max_cycle;Signal;HPM_P1;HPM_P2
2024/04/13 07:09:23;;;;;;;5.95;1.60;;;;;;;21.67;53.60;97883.59;5391636;26;20729;-76
2024/04/13 07:11:49;;;;;;;2.60;1.30;;;;;;;21.76;53.69;97879.63;5354678;26;68997;-76
2024/04/13 07:14:19;;;;;;;5.45;1.60;;;;;;;21.85;54.49;97898.72;5363602;26;20448;-79
2024/04/13 07:16:45;;;;;;;3.40;1.35;;;;;;;21.94;54.73;97901.91;5362554;26;20001;-79
2024/04/13 07:19:15;;;;;;;3.10;1.33;;;;;;;22.01;54.74;97892.00;5361355;26;20078;-78
2024/04/13 07:21:41;;;;;;;6.05;1.20;;;;;;;22.09;54.75;97897.00;5331563;26;105397;-78
2024/04/13 07:24:11;;;;;;;5.55;1.40;;;;;;;22.15;54.26;97901.44;5334752;26;20087;-78
2024/04/13 07:26:41;;;;;;;5.47;1.73;;;;;;;22.24;54.26;97901.13;5357991;26;20020;-78
2024/04/13 07:29:10;;;;;;;4.65;1.40;;;;;;;22.29;54.25;97888.78;5349762;26;20016;-79
2024/04/13 07:31:37;;;;;;;3.05;1.15;;;;;;;22.34;54.13;97898.75;5329250;26;20005;-75
2024/04/13 11:11:25;;;;;;;7.10;3.20;;;;;;;22.54;47.96;97720.31;5506730;25;1823665;-83
2024/04/13 11:13:53;;;;;;;8.00;2.78;;;;;;;23.02;46.04;97711.28;5511845;26;20008;-82
2024/04/13 11:16:23;;;;;;;11.20;5.75;;;;;;;23.39;45.17;97713.63;5490654;26;20084;-81
2024/04/13 12:32:38;;;;;;;7.57;3.17;;;;;;;25.59;37.03;97638.72;5730456;22;20048;-79
2024/04/13 12:35:10;;;;;;;5.40;2.40;;;;;;;25.59;36.98;97636.06;5300573;27;20014;-80
2024/04/13 12:37:51;;;;;;;8.23;2.03;;;;;;;25.62;36.39;97647.03;5298368;27;20083;-81
2024/04/13 12:40:19;;;;;;;3.75;2.30;;;;;;;25.65;35.62;97624.34;5288346;27;20002;-83
2024/04/13 12:43:18;;;;;;;4.50;2.10;;;;;;;25.72;35.41;97630.28;5258618;27;20008;-80
2024/04/13 12:45:53;;;;;;;5.97;2.20;;;;;;;25.77;35.39;97622.31;5280544;27;19999;-82
2024/04/13 12:48:39;;;;;;;3.17;2.03;;;;;;;25.78;34.75;97618.59;5300982;27;20003;-83
2024/04/13 12:53:51;;;;;;;4.05;1.85;;;;;;;25.81;35.14;97615.41;5230860;27;20090;-80
2024/04/13 12:56:20;;;;;;;4.28;1.67;;;;;;;25.83;35.18;97610.59;5248827;27;20352;-80
2024/04/13 12:58:58;;;;;;;2.85;1.85;;;;;;;25.86;35.04;97602.06;5250165;27;20013;-80
2024/04/13 13:01:32;;;;;;;3.47;1.63;;;;;;;25.87;35.39;97603.69;5236049;27;20008;-80
2024/04/13 13:04:07;;;;;;;4.53;1.95;;;;;;;25.86;35.67;97603.94;5215754;27;20018;-80
2024/04/13 13:06:37;;;;;;;5.60;1.85;;;;;;;25.82;34.95;97592.97;5214846;27;19999;-80
2024/04/13 13:09:20;;;;;;;5.72;2.00;;;;;;;25.81;37.67;97590.53;5214364;27;20004;-80
2024/04/13 13:11:51;;;;;;;17.02;2.42;;;;;;;25.81;38.01;97586.00;5215037;27;20003;-80
2024/04/13 13:14:24;;;;;;;4.50;2.10;;;;;;;25.82;37.56;97582.28;5216039;27;20024;-80
2024/04/13 13:16:53;;;;;;;5.28;1.80;;;;;;;25.82;35.86;97582.28;5223057;27;20467;-80
2024/04/13 13:19:51;;;;;;;2.08;1.75;;;;;;;25.82;34.96;97576.09;5216303;27;20015;-80
2024/04/13 13:22:38;;;;;;;3.05;1.42;;;;;;;25.84;36.09;97572.09;5220798;27;20008;-80
2024/04/13 13:25:33;;;;;;;3.13;1.63;;;;;;;25.84;37.17;97558.75;5180821;27;20020;-80
2024/04/13 13:28:37;;;;;;;3.58;1.50;;;;;;;25.81;36.07;97561.94;5218796;27;20003;-81
2024/04/13 13:34:28;;;;;;;2.97;1.45;;;;;;;25.76;33.99;97545.88;5919571;21;20004;-80
2024/04/13 13:36:55;;;;;;;4.78;1.58;;;;;;;25.74;33.82;97542.66;5349793;26;20005;-80
2024/04/13 13:39:28;;;;;;;2.65;1.50;;;;;;;25.73;34.14;97534.88;5349465;26;20013;-80
2024/04/13 13:41:59;;;;;;;3.00;1.60;;;;;;;25.72;34.81;97539.44;5318291;27;20016;-80
2024/04/13 13:44:31;;;;;;;;;;;;;;;25.73;34.66;97529.53;5319974;26;20058;-79
2024/04/13 13:46:59;;;;;;;3.10;1.40;;;;;;;25.70;35.04;97525.53;5316995;27;19934;-81
2024/04/13 13:49:31;;;;;;;1.92;1.25;;;;;;;25.69;34.51;97521.22;5321900;27;20008;-81
2024/04/13 13:51:59;;;;;;;4.32;1.98;;;;;;;25.65;34.28;97528.16;5321033;27;20017;-81
2024/04/13 13:54:30;;;;;;;4.72;1.42;;;;;;;25.63;34.83;97519.59;5320844;27;20016;-80
2024/04/13 14:21:07;;;;;;;4.55;1.75;;;;;;;25.51;34.66;97482.38;5312731;26;20072;-77
2024/04/13 14:23:53;;;;;;;15.32;3.65;;;;;;;25.48;35.23;97491.69;5283743;27;20417;-80
2024/04/13 14:26:26;;;;;;;12.60;2.72;;;;;;;25.43;37.27;97478.31;5292498;26;19998;-78
2024/04/13 14:28:53;;;;;;;4.05;1.80;;;;;;;25.40;34.73;97473.47;5305555;27;20005;-78
2024/04/13 14:31:23;;;;;;;3.35;1.80;;;;;;;25.38;34.34;97469.44;5310059;26;20025;-78
2024/04/13 14:33:49;;;;;;;5.78;1.80;;;;;;;25.33;35.68;97453.41;5312908;27;20497;-77
2024/04/13 14:36:22;;;;;;;3.03;1.83;;;;;;;25.29;35.16;97455.75;5302589;27;20021;-79
2024/04/13 14:38:49;;;;;;;3.95;1.60;;;;;;;25.26;35.04;97450.94;5278935;27;20025;-78
2024/04/13 14:41:18;;;;;;;2.60;1.83;;;;;;;25.25;34.95;97444.81;5311520;26;20010;-77
2024/04/13 14:43:46;;;;;;;2.03;1.65;;;;;;;25.25;34.88;97444.81;5285164;27;20007;-78
2024/04/13 14:46:15;;;;;;;5.82;1.67;;;;;;;25.25;35.78;97442.13;5301110;27;20006;-78
2024/04/13 14:48:42;;;;;;;3.28;1.80;;;;;;;25.21;34.96;97443.69;5278673;27;20018;-77
2024/04/13 14:51:11;;;;;;;6.07;2.00;;;;;;;25.19;35.28;97437.81;5300165;27;20079;-77
2024/04/13 14:53:41;;;;;;;2.72;1.55;;;;;;;25.17;35.05;97439.91;5316851;27;20014;-78
2024/04/13 14:56:10;;;;;;;5.20;1.73;;;;;;;25.15;35.63;97444.69;5312342;26;20005;-78
2024/04/13 14:58:37;;;;;;;1.38;1.27;;;;;;;25.14;35.13;97432.38;5312176;27;20005;-78
2024/04/13 15:01:07;;;;;;;4.40;1.70;;;;;;;25.12;34.93;97433.69;5310630;26;20010;-79
2024/04/13 15:03:34;;;;;;;5.40;2.13;;;;;;;25.09;34.46;97432.34;5312872;27;20012;-78
2024/04/13 15:06:05;;;;;;;2.90;1.58;;;;;;;25.04;34.05;97427.78;5313343;27;20006;-78
2024/04/13 15:08:32;;;;;;;3.88;1.60;;;;;;;25.01;34.00;97428.28;5321774;26;20001;-79
2024/04/13 15:11:04;;;;;;;2.15;1.52;;;;;;;24.98;34.19;97434.13;5319668;26;20349;-81
2024/04/13 15:13:31;;;;;;;2.75;1.70;;;;;;;24.97;33.85;97423.69;5318109;26;20083;-79
2024/04/13 15:16:00;;;;;;;3.20;1.40;;;;;;;24.93;33.97;97427.97;5289926;27;20006;-78
2024/04/13 15:18:27;;;;;;;3.67;1.50;;;;;;;24.89;34.67;97424.97;5278729;27;20022;-79
2024/04/13 15:20:58;;;;;;;1.88;1.60;;;;;;;24.87;34.24;97416.41;5292270;27;20338;-78
2024/04/13 15:23:25;;;;;;;4.10;1.20;;;;;;;24.85;33.37;97408.66;5312286;27;20017;-78
2024/04/13 15:25:56;;;;;;;1.98;1.30;;;;;;;24.83;32.57;97407.31;5299661;27;20006;-78
2024/04/13 15:28:28;;;;;;;3.40;1.15;;;;;;;24.80;31.81;97407.81;5285299;26;20017;-78
2024/04/13 15:30:55;;;;;;;1.92;1.20;;;;;;;24.77;32.00;97402.97;5277607;27;20017;-78
2024/04/13 15:33:25;;;;;;;8.65;1.35;;;;;;;24.74;31.93;97396.28;5289014;27;20461;-78
2024/04/13 15:35:51;;;;;;;1.75;1.45;;;;;;;24.72;31.80;97397.59;5308485;27;20018;-78
2024/04/13 15:38:22;;;;;;;4.85;1.40;;;;;;;24.71;32.09;97390.66;5294046;27;20007;-78
2024/04/13 15:40:49;;;;;;;1.55;1.13;;;;;;;24.67;31.74;97388.50;5289226;27;20072;-77
2024/04/13 15:43:18;;;;;;;2.28;1.20;;;;;;;24.66;34.34;97394.06;5295482;27;20002;-78
2024/04/13 15:45:51;;;;;;;1.38;0.90;;;;;;;24.64;34.19;97385.53;5289949;27;20013;-79
2024/04/13 15:48:21;;;;;;;1.40;1.25;;;;;;;24.61;33.18;97386.84;5291147;26;20092;-79
2024/04/13 15:50:48;;;;;;;1.98;1.00;;;;;;;24.58;32.84;97386.56;5276554;27;20372;-78
2024/04/13 15:53:18;;;;;;;6.00;1.15;;;;;;;24.56;33.30;97384.13;5276913;27;20072;-78
2024/04/13 15:55:45;;;;;;;2.20;1.35;;;;;;;24.54;32.35;97382.78;5283775;27;20012;-77
2024/04/13 15:58:15;;;;;;;1.60;0.95;;;;;;;24.51;32.21;97376.09;5314017;27;20001;-78
2024/04/13 16:00:41;;;;;;;1.08;0.98;;;;;;;24.49;32.98;97370.19;5314711;26;20005;-78
2024/04/13 16:03:14;;;;;;;2.45;1.10;;;;;;;24.47;32.49;97374.94;5314529;27;20431;-78
2024/04/13 16:05:40;;;;;;;1.25;1.00;;;;;;;24.43;32.73;97371.97;5311844;27;20027;-78
2024/04/13 16:08:10;;;;;;;3.63;1.70;;;;;;;24.42;32.36;97364.22;5314519;27;20012;-78
2024/04/13 16:10:36;;;;;;;1.67;1.10;;;;;;;24.39;32.33;97364.72;5311809;26;20005;-80
2024/04/13 16:13:06;;;;;;;2.35;1.20;;;;;;;24.37;32.79;97366.84;5313719;26;19997;-77
2024/04/13 16:15:33;;;;;;;2.78;1.50;;;;;;;24.35;33.01;97360.94;5312963;27;20005;-79
2024/04/13 16:18:02;;;;;;;2.58;1.30;;;;;;;24.32;32.75;97364.94;5314843;27;20079;-78
2024/04/13 16:20:31;;;;;;;3.00;1.55;;;;;;;24.31;33.12;97370.50;5305586;26;20002;-80
2024/04/13 16:23:01;;;;;;;1.77;1.30;;;;;;;24.28;33.20;97353.16;5299749;27;20124;-77
2024/04/13 16:25:28;;;;;;;2.90;1.25;;;;;;;24.27;33.60;97362.22;5296071;27;20022;-80
2024/04/13 16:28:00;;;;;;;3.45;1.20;;;;;;;24.26;33.52;97360.59;5286777;27;20002;-79
2024/04/13 16:30:27;;;;;;;3.00;1.40;;;;;;;24.24;33.84;97363.50;5296934;27;20006;-76
2024/04/13 16:32:57;;;;;;;3.53;1.27;;;;;;;24.21;33.75;97355.22;5313935;27;20017;-76
2024/04/13 16:35:24;;;;;;;1.10;1.00;;;;;;;24.18;33.85;97353.88;5306261;27;20047;-77
2024/04/13 16:37:56;;;;;;;2.67;1.17;;;;;;;24.16;33.53;97350.66;5279904;27;20013;-77
2024/04/13 16:40:24;;;;;;;;;;;;;;;24.14;33.88;97352.75;5284771;27;20085;-76
2024/04/13 16:42:54;;;;;;;2.75;1.00;;;;;;;24.11;33.92;97349.78;5280014;27;19927;-76
2024/04/13 16:45:20;;;;;;;3.42;1.50;;;;;;;24.08;33.56;97345.75;5279436;27;20488;-80
2024/04/13 16:47:50;;;;;;;2.65;1.48;;;;;;;24.05;33.86;97340.91;5281669;27;20006;-79
2024/04/13 16:50:17;;;;;;;2.08;1.40;;;;;;;24.04;33.97;97347.31;5286318;27;20010;-77
2024/04/13 16:52:46;;;;;;;2.28;1.40;;;;;;;24.01;34.93;97345.16;5298399;27;20080;-76
2024/04/13 16:55:15;;;;;;;2.08;1.60;;;;;;;23.98;33.97;97346.44;5304185;27;20020;-77
2024/04/13 16:57:45;;;;;;;3.45;1.67;;;;;;;23.96;34.56;97337.88;5310936;26;20006;-78
2024/04/13 17:00:12;;;;;;;3.13;1.13;;;;;;;23.96;34.53;97337.09;5281881;27;20007;-81
2024/04/13 17:02:41;;;;;;;2.53;1.27;;;;;;;23.94;34.52;97336.53;5280893;27;20011;-80
2024/04/13 17:05:08;;;;;;;4.32;1.17;;;;;;;23.92;36.04;97330.63;5281984;27;20002;-81
2024/04/13 17:07:38;;;;;;;5.35;1.60;;;;;;;23.89;37.41;97331.16;5282151;27;20007;-77
2024/04/13 17:10:05;;;;;;;4.88;1.55;;;;;;;23.85;36.08;97330.81;5304441;26;20097;-78
2024/04/13 17:12:37;;;;;;;3.17;1.30;;;;;;;23.82;35.59;97332.13;5290722;27;20500;-77
2024/04/13 17:15:08;;;;;;;3.35;1.50;;;;;;;23.78;36.42;97332.88;5286940;27;20018;-78
2024/04/13 17:17:37;;;;;;;6.07;1.40;;;;;;;23.75;38.14;97330.69;5279211;27;20370;-77
2024/04/13 17:20:06;;;;;;;8.68;1.55;;;;;;;23.71;38.49;97330.38;5296727;26;20076;-77
2024/04/13 17:22:35;;;;;;;2.13;1.33;;;;;;;23.68;38.81;97325.56;5290320;27;20010;-78
2024/04/13 17:25:03;;;;;;;2.13;1.05;;;;;;;23.64;37.31;97335.09;5312144;27;20017;-78
2024/04/13 17:27:33;;;;;;;1.60;1.08;;;;;;;23.61;37.37;97324.91;5312867;26;20013;-77
2024/04/13 17:30:03;;;;;;;4.68;3.15;;;;;;;23.58;39.05;97325.44;5311812;26;20075;-77
2024/04/13 17:32:32;;;;;;;3.28;2.20;;;;;;;23.55;37.52;97315.25;5299792;26;20006;-76
2024/04/13 17:34:59;;;;;;;4.38;1.88;;;;;;;23.51;39.40;97322.16;5281657;27;20541;-77
2024/04/13 17:37:28;;;;;;;3.47;2.08;;;;;;;23.47;39.86;97318.38;5280973;27;20009;-76
2024/04/13 17:39:55;;;;;;;2.88;1.80;;;;;;;23.43;39.68;97318.03;5299503;27;20017;-78
2024/04/13 17:42:25;;;;;;;4.47;2.33;;;;;;;23.38;39.86;97313.47;5281274;27;20021;-77
2024/04/13 17:44:51;;;;;;;5.82;2.03;;;;;;;23.31;40.13;97323.50;5305172;27;20010;-76
2024/04/13 17:47:23;;;;;;;7.95;2.20;;;;;;;23.23;40.50;97311.41;5284107;26;20022;-77
2024/04/13 17:49:50;;;;;;;4.25;2.00;;;;;;;23.16;40.98;97312.63;5303722;26;20013;-80
2024/04/13 17:52:19;;;;;;;5.38;2.40;;;;;;;23.10;42.23;97310.94;5294518;27;20087;-78
2024/04/13 17:54:46;;;;;;;2.75;2.08;;;;;;;23.02;41.85;97312.97;5312602;27;20421;-80
2024/04/13 17:57:16;;;;;;;7.35;2.47;;;;;;;22.93;41.76;97303.75;5281119;27;20047;-81
2024/04/13 17:59:43;;;;;;;5.57;2.65;;;;;;;22.82;42.10;97297.47;5307620;26;20372;-76
2024/04/13 18:02:12;;;;;;;5.60;2.38;;;;;;;22.68;42.56;97295.41;5309632;27;20006;-77
2024/04/13 18:04:43;;;;;;;3.35;2.33;;;;;;;22.56;43.27;97288.28;5294604;26;20022;-77
2024/04/13 18:07:12;;;;;;;6.47;2.35;;;;;;;22.46;43.27;97293.47;5297619;27;20084;-77
2024/04/13 18:09:39;;;;;;;6.57;2.10;;;;;;;22.32;43.43;97286.81;5312849;26;20350;-76
2024/04/13 18:12:09;;;;;;;4.82;2.90;;;;;;;22.20;43.62;97295.63;5312963;27;20072;-79
2024/04/13 18:14:36;;;;;;;5.15;2.65;;;;;;;22.07;43.08;97295.13;5312798;27;20017;-76
2024/04/13 18:17:05;;;;;;;8.85;2.72;;;;;;;21.95;43.31;97287.22;5287007;26;20018;-76
2024/04/13 18:19:32;;;;;;;4.78;2.53;;;;;;;21.84;43.35;97296.03;5278230;27;20014;-76
2024/04/13 18:22:04;;;;;;;5.28;2.72;;;;;;;21.76;43.55;97307.84;5288924;27;20080;-79
2024/04/13 18:24:31;;;;;;;;;;;;;;;21.68;43.62;97297.59;5307440;27;20009;-79
2024/04/13 18:27:01;;;;;;;7.50;3.28;;;;;;;21.59;43.46;97299.81;5311767;26;19934;-75
2024/04/13 18:29:28;;;;;;;9.98;3.17;;;;;;;21.47;44.01;97301.66;5312221;26;20016;-78
2024/04/13 18:31:57;;;;;;;6.22;2.88;;;;;;;21.36;43.92;97304.09;5300014;27;20057;-76
2024/04/13 18:34:24;;;;;;;7.03;3.45;;;;;;;21.26;43.83;97301.22;5278716;27;20354;-75
2024/04/13 18:36:54;;;;;;;7.90;3.78;;;;;;;21.17;44.24;97311.38;5301644;27;20354;-75
2024/04/13 18:39:24;;;;;;;5.97;3.85;;;;;;;21.11;44.77;97298.25;5296113;27;20352;-77
2024/04/13 18:41:53;;;;;;;6.00;3.33;;;;;;;21.09;45.85;97300.31;5303547;27;20017;-78
2024/04/13 18:44:20;;;;;;;5.70;2.90;;;;;;;21.05;45.26;97299.16;5279110;27;20021;-78
2024/04/13 18:46:49;;;;;;;4.10;2.67;;;;;;;21.02;44.93;97303.09;5281198;27;20006;-76
2024/04/13 18:49:16;;;;;;;5.15;3.40;;;;;;;20.99;45.14;97307.00;5312154;27;20016;-77
2024/04/13 18:51:46;;;;;;;7.22;2.88;;;;;;;20.95;45.24;97302.41;5306419;26;20083;-78
2024/04/13 18:54:13;;;;;;;4.68;3.10;;;;;;;20.88;45.12;97305.19;5309097;27;20061;-79
2024/04/13 18:56:45;;;;;;;5.00;2.60;;;;;;;20.82;45.52;97315.91;5311040;26;20006;-77
2024/04/13 18:59:12;;;;;;;6.70;2.90;;;;;;;20.77;45.73;97313.91;5311564;27;20075;-78
2024/04/13 19:01:41;;;;;;;9.30;2.92;;;;;;;20.73;45.74;97318.06;5294785;26;20018;-78
2024/04/13 19:04:08;;;;;;;7.60;3.33;;;;;;;20.68;45.69;97320.59;5311912;27;20005;-82
2024/04/13 19:06:38;;;;;;;3.78;3.15;;;;;;;20.62;46.48;97332.09;5306654;27;20034;-77
2024/04/13 19:09:05;;;;;;;7.72;3.42;;;;;;;20.54;46.16;97334.03;5285356;27;20373;-79
2024/04/13 19:11:34;;;;;;;4.88;2.85;;;;;;;20.48;46.78;97337.56;5309073;26;20345;-78
2024/04/13 19:14:03;;;;;;;4.25;3.15;;;;;;;20.41;46.89;97336.88;5277486;27;20002;-78
2024/04/13 19:16:33;;;;;;;6.47;3.33;;;;;;;20.35;46.64;97343.06;5291665;27;20017;-81
2024/04/13 19:19:00;;;;;;;4.18;3.17;;;;;;;20.32;47.57;97354.13;5311602;27;20016;-79
2024/04/13 19:21:29;;;;;;;14.13;4.45;;;;;;;20.28;48.17;97352.97;5307793;26;20006;-79
2024/04/13 19:23:56;;;;;;;10.20;5.25;;;;;;;20.24;49.54;97354.44;5302984;27;20010;-79
2024/04/13 19:26:26;;;;;;;7.25;4.78;;;;;;;20.19;49.60;97354.31;5277568;27;20002;-80
2024/04/13 19:28:53;;;;;;;11.25;6.05;;;;;;;20.13;48.19;97361.31;5277393;27;19999;-80
2024/04/13 19:31:25;;;;;;;7.07;3.97;;;;;;;20.00;48.52;97346.38;5279256;27;20006;-80
2024/04/13 19:33:51;;;;;;;5.38;3.05;;;;;;;19.84;48.56;97341.72;5283319;27;20042;-79
2024/04/13 19:36:21;;;;;;;3.42;2.20;;;;;;;19.67;49.01;97349.41;5280854;27;20110;-79
2024/04/13 19:38:49;;;;;;;5.60;3.17;;;;;;;19.51;48.63;97353.47;5281334;27;20017;-80
2024/04/13 19:41:19;;;;;;;4.93;2.90;;;;;;;19.38;49.24;97354.41;5303536;27;20001;-80
2024/04/13 19:43:46;;;;;;;3.67;3.25;;;;;;;19.30;49.87;97352.03;5331312;26;20017;-80
2024/04/13 19:46:15;;;;;;;5.00;3.50;;;;;;;19.24;50.68;97360.84;5320677;26;20003;-78
2024/04/13 19:48:45;;;;;;;4.85;3.70;;;;;;;19.21;50.40;97359.44;5323141;21;20021;-72
2024/04/13 19:51:15;;;;;;;5.70;4.03;;;;;;;19.13;49.94;97357.91;5282084;27;20017;-73
2024/04/13 19:53:46;;;;;;;6.82;3.88;;;;;;;19.05;50.27;97360.03;5282119;27;20010;-73
2024/04/13 19:56:16;;;;;;;8.00;3.63;;;;;;;18.97;50.23;97358.44;5311621;27;20025;-72
2024/04/13 19:58:44;;;;;;;6.43;4.03;;;;;;;18.90;51.10;97363.00;5311828;26;20006;-73
2024/04/13 20:01:14;;;;;;;6.32;4.25;;;;;;;18.84;51.49;97359.34;5279814;27;20006;-72
2024/04/13 20:03:41;;;;;;;8.23;4.15;;;;;;;18.79;51.38;97364.50;5300583;27;20361;-72
2024/04/13 20:06:14;;;;;;;7.93;4.30;;;;;;;18.70;51.58;97353.34;5288141;27;20089;-72
2024/04/13 20:08:41;;;;;;;4.88;3.85;;;;;;;18.63;51.33;97351.75;5306225;26;20016;-73
2024/04/13 20:11:11;;;;;;;4.28;3.25;;;;;;;18.55;51.12;97344.91;5314069;27;20002;-73
2024/04/13 20:13:39;;;;;;;5.88;4.07;;;;;;;18.48;51.52;97344.16;5291479;27;20481;-73
2024/04/13 20:18:54;;;;;;;6.03;4.20;;;;;;;18.32;51.97;97329.63;5314201;26;20103;-74
2024/04/13 20:21:24;;;;;;;5.05;3.83;;;;;;;18.23;52.31;97330.91;5313504;27;20594;-74
2024/04/13 20:23:53;;;;;;;7.57;3.97;;;;;;;18.14;52.18;97325.06;5257914;27;20006;-75
2024/04/13 20:26:22;;;;;;;5.05;3.60;;;;;;;18.06;52.48;97331.41;5279631;27;20006;-75
2024/04/13 20:28:52;;;;;;;6.57;3.95;;;;;;;17.99;52.23;97317.41;5279743;27;20006;-76
2024/04/13 20:31:21;;;;;;;7.55;3.88;;;;;;;17.93;52.92;97323.56;5279648;27;20006;-75
2024/04/13 20:33:48;;;;;;;7.40;3.90;;;;;;;17.87;52.79;97313.84;5274961;27;20011;-74
2024/04/13 20:36:17;;;;;;;6.85;3.97;;;;;;;17.84;52.96;97311.59;5245835;27;20455;-74
2024/04/13 20:38:46;;;;;;;7.78;3.92;;;;;;;17.82;52.82;97314.47;5277246;27;20010;-75
2024/04/13 20:41:16;;;;;;;10.43;4.13;;;;;;;17.80;52.91;97310.38;5264211;27;20021;-75
2024/04/13 20:43:42;;;;;;;10.57;4.20;;;;;;;17.74;53.09;97314.69;5275285;27;20017;-75
2024/04/13 20:46:12;;;;;;;8.00;4.13;;;;;;;17.75;53.41;97318.91;5278089;27;20021;-74
2024/04/13 20:48:38;;;;;;;4.65;3.80;;;;;;;17.77;52.95;97305.53;5280226;27;20003;-75
2024/04/13 20:51:08;;;;;;;5.82;3.80;;;;;;;17.77;53.37;97308.97;5292703;27;20006;-74
2024/04/13 20:53:35;;;;;;;6.32;3.97;;;;;;;17.78;53.56;97304.53;5281884;27;20050;-75
2024/04/13 20:56:07;;;;;;;7.57;4.00;;;;;;;17.76;53.23;97301.28;5289185;27;20014;-75
2024/04/13 20:58:34;;;;;;;6.00;3.72;;;;;;;17.74;53.27;97305.97;5296405;27;20006;-76
2024/04/13 21:01:03;;;;;;;7.90;3.70;;;;;;;17.70;54.10;97306.34;5289346;27;20003;-75
2024/04/13 21:03:30;;;;;;;3.80;3.38;;;;;;;17.68;53.51;97307.59;5280103;27;20014;-75
2024/04/13 21:06:00;;;;;;;5.68;3.67;;;;;;;17.65;53.19;97298.28;5279755;27;20021;-75
2024/04/13 21:08:26;;;;;;;8.68;4.07;;;;;;;17.62;53.75;97296.06;5279185;27;20006;-75
2024/04/13 21:10:56;;;;;;;12.77;4.72;;;;;;;17.58;53.57;97297.50;5278996;27;20017;-74
2024/04/13 21:13:30;;;;;;;9.07;4.15;;;;;;;17.53;54.47;97299.13;5278837;27;20002;-74
2024/04/13 21:15:57;;;;;;;5.97;3.72;;;;;;;17.50;54.36;97300.38;5278345;27;20002;-74
2024/04/13 21:18:27;;;;;;;7.00;3.92;;;;;;;17.48;54.57;97297.13;5279008;27;20007;-74
2024/04/13 21:20:53;;;;;;;8.13;4.60;;;;;;;17.49;55.10;97293.44;5279528;27;20354;-75
2024/04/13 21:23:23;;;;;;;9.63;4.35;;;;;;;17.48;54.27;97289.22;5279035;27;20033;-74
2024/04/13 21:25:49;;;;;;;6.45;4.03;;;;;;;17.42;54.28;97287.41;5278526;27;20107;-74
2024/04/13 21:28:19;;;;;;;4.50;3.67;;;;;;;17.41;54.46;97293.72;5278848;27;20002;-74
2024/04/13 21:30:48;;;;;;;9.10;4.25;;;;;;;17.40;54.45;97289.44;5279226;27;20014;-75
2024/04/13 21:33:18;;;;;;;4.65;3.47;;;;;;;17.35;54.32;97278.72;5278687;27;20043;-75
2024/04/13 21:35:45;;;;;;;9.10;3.88;;;;;;;17.25;54.41;97274.69;5278106;27;20417;-75
2024/04/13 21:38:15;;;;;;;4.53;3.28;;;;;;;17.18;55.04;97273.88;5278347;27;20007;-75
2024/04/13 21:40:42;;;;;;;4.43;3.60;;;;;;;17.11;54.93;97275.72;5278335;27;20003;-75
2024/04/13 21:43:11;;;;;;;7.95;4.00;;;;;;;17.04;55.19;97277.56;5278965;27;20002;-74
2024/04/13 21:45:38;;;;;;;6.53;3.80;;;;;;;16.95;55.29;97268.28;5278143;27;19998;-76
2024/04/13 21:48:10;;;;;;;9.20;3.92;;;;;;;16.87;55.67;97269.28;5278837;27;20007;-74
2024/04/13 21:50:41;;;;;;;7.90;3.28;;;;;;;16.82;55.20;97266.47;5278141;27;20014;-74
2024/04/13 21:53:11;;;;;;;6.43;4.32;;;;;;;16.80;55.71;97258.75;5278453;27;20006;-74
2024/04/13 21:55:38;;;;;;;5.40;4.40;;;;;;;16.79;56.50;97258.94;5277765;27;20440;-74
2024/04/13 21:58:08;;;;;;;4.97;3.67;;;;;;;16.78;55.50;97250.22;5278718;27;20331;-74
2024/04/13 22:00:35;;;;;;;4.13;3.60;;;;;;;16.76;56.06;97260.16;5282501;27;20002;-74
2024/04/13 22:03:07;;;;;;;4.50;3.70;;;;;;;16.76;55.61;97261.97;5280664;27;20081;-75
2024/04/13 22:05:37;;;;;;;8.80;3.72;;;;;;;16.73;56.08;97257.94;5278028;27;20002;-74
2024/04/13 22:08:07;;;;;;;4.63;3.30;;;;;;;16.69;55.74;97252.25;5278656;27;20089;-74
2024/04/13 22:10:34;;;;;;;5.55;3.00;;;;;;;16.64;56.14;97248.63;5279367;27;20002;-74
2024/04/13 22:13:03;;;;;;;6.50;3.53;;;;;;;16.57;55.82;97253.06;5278012;27;20014;-74
2024/04/13 22:15:30;;;;;;;8.07;3.13;;;;;;;16.51;56.46;97249.44;5278464;27;20014;-74
2024/04/13 22:18:00;;;;;;;4.50;3.45;;;;;;;16.50;56.16;97241.75;5279819;27;20002;-74
2024/04/13 22:20:27;;;;;;;7.60;3.58;;;;;;;16.44;56.24;97246.81;5278312;27;20013;-75
2024/04/13 22:22:59;;;;;;;4.25;3.55;;;;;;;16.40;56.46;97248.22;5278099;27;20331;-74
2024/04/13 22:25:27;;;;;;;11.93;3.58;;;;;;;16.39;56.31;97245.78;5278020;27;20072;-74
2024/04/13 22:27:56;;;;;;;4.38;3.50;;;;;;;16.37;56.22;97248.63;5277828;27;20017;-74
2024/04/13 22:30:23;;;;;;;3.92;3.22;;;;;;;16.32;56.29;97242.34;5278427;27;20003;-75
2024/04/13 22:32:53;;;;;;;6.35;3.10;;;;;;;16.29;56.25;97243.56;5280727;27;20081;-75
2024/04/13 22:35:19;;;;;;;3.63;3.22;;;;;;;16.28;56.58;97247.19;5279558;27;20211;-75
2024/04/13 22:37:49;;;;;;;4.85;3.17;;;;;;;16.30;56.53;97244.38;5277874;27;20349;-75
2024/04/13 22:40:18;;;;;;;5.25;3.30;;;;;;;16.31;56.85;97244.19;5277976;27;20366;-75
2024/04/13 22:42:47;;;;;;;6.60;3.50;;;;;;;16.33;56.63;97252.66;5278603;27;20013;-75
2024/04/13 22:45:15;;;;;;;7.10;3.65;;;;;;;16.33;56.52;97247.41;5277277;27;20010;-74
2024/04/13 22:47:44;;;;;;;7.65;3.45;;;;;;;16.33;56.11;97252.66;5277861;27;20006;-74
2024/04/13 22:50:11;;;;;;;6.07;3.08;;;;;;;16.33;56.12;97259.75;5277862;27;20030;-74
2024/04/13 22:52:41;;;;;;;5.00;3.13;;;;;;;16.31;55.97;97256.50;5277781;27;20013;-75
2024/04/13 22:55:09;;;;;;;5.18;3.10;;;;;;;16.29;56.02;97251.47;5278479;27;20003;-76
2024/04/13 22:57:41;;;;;;;5.10;2.90;;;;;;;16.25;56.09;97253.69;5277498;27;20002;-75
2024/04/13 23:00:09;;;;;;;5.63;3.17;;;;;;;16.22;56.06;97254.09;5278681;27;20013;-75
2024/04/13 23:02:39;;;;;;;15.73;3.38;;;;;;;16.14;56.14;97250.84;5277808;27;20466;-74
2024/04/13 23:05:06;;;;;;;7.80;2.92;;;;;;;16.06;56.57;97250.00;5277444;27;20003;-74
2024/04/13 23:07:39;;;;;;;4.38;2.92;;;;;;;16.01;56.43;97249.81;5280308;27;20013;-74
2024/04/13 23:10:06;;;;;;;3.38;2.85;;;;;;;15.98;56.62;97252.84;5292382;27;20003;-74
2024/04/13 23:12:35;;;;;;;4.45;3.15;;;;;;;15.93;56.87;97247.38;5293551;27;20002;-76
2024/04/13 23:15:07;;;;;;;4.50;2.72;;;;;;;15.88;56.96;97246.34;5292232;27;20016;-74
2024/04/13 23:17:37;;;;;;;6.60;3.38;;;;;;;15.85;57.43;97244.91;5278757;27;20018;-74
2024/04/13 23:20:05;;;;;;;5.60;2.90;;;;;;;15.83;57.16;97246.94;5278417;27;20521;-75
2024/04/13 23:22:34;;;;;;;7.43;3.58;;;;;;;15.79;56.93;97243.09;5277373;27;20017;-75
2024/04/13 23:25:01;;;;;;;3.28;2.80;;;;;;;15.76;57.47;97248.75;5277551;27;20075;-75
2024/04/13 23:27:31;;;;;;;4.43;2.83;;;;;;;15.72;57.46;97250.13;5276931;27;20011;-74
2024/04/13 23:29:57;;;;;;;4.88;3.67;;;;;;;15.70;57.29;97236.34;5276694;27;20017;-75
2024/04/13 23:32:29;;;;;;;3.13;2.80;;;;;;;15.70;57.64;97238.97;5277048;27;20335;-75
2024/04/13 23:34:56;;;;;;;5.97;3.60;;;;;;;15.69;57.53;97240.00;5276559;27;20478;-76
2024/04/13 23:37:25;;;;;;;6.22;3.40;;;;;;;15.64;57.52;97233.50;5276372;27;20002;-75
2024/04/13 23:39:52;;;;;;;7.18;3.45;;;;;;;15.62;57.47;97232.91;5276055;27;20013;-75
2024/04/13 23:42:21;;;;;;;8.55;3.50;;;;;;;15.61;57.67;97240.97;5276433;27;20007;-75
2024/04/13 23:44:48;;;;;;;3.88;3.47;;;;;;;15.57;57.86;97243.22;5276633;27;20346;-75
2024/04/13 23:47:17;;;;;;;4.72;2.92;;;;;;;15.58;57.69;97242.19;5276217;27;20006;-75
2024/04/13 23:49:47;;;;;;;5.60;3.15;;;;;;;15.59;57.88;97243.00;5276145;27;20002;-75
2024/04/13 23:52:16;;;;;;;5.97;2.95;;;;;;;15.63;57.87;97244.22;5276173;27;20014;-75
2024/04/13 23:54:43;;;;;;;6.28;3.42;;;;;;;15.63;57.83;97238.97;5275975;27;20013;-75
2024/04/13 23:57:12;;;;;;;6.13;3.30;;;;;;;15.64;58.24;97240.59;5275541;27;20034;-74
2024/04/13 23:59:40;;;;;;;6.75;3.22;;;;;;;15.67;58.22;97242.81;5275879;27;20339;-75
